Simi Valley, CA

7:07 AM PDT on September 01, 2014 (GMT -0700)
Whiteman | Change Station
CLOSE
Current Station
Airport
Location: San Fernando,
Elevation: 1004 ft
Nearby Weather Stations

Elev 1004 ft 34.26 °N, 118.41 °W | Updated 11 hours ago

Clear
Clear
64 °F
Feels Like 64 °F
N
1
Wind Variable Wind from NNE
Gusts 2 mph

Today
High -- | Low -- °F
--% Chance of Precip.
Yesterday
High -- | Low -- °F
Precip. -- in
6:28 AM 7:20 PM
Waxing Crescent, 41% visible
Pressure 29.83 in
Visibility 15.0 miles
Clouds Clear
Dew Point 56 °F
Humidity 73%
Rainfall 0.00 in
Snow Depth Not available.
UV 0 out of 12
Pollen 7.80 out of 12
Ozone Good
PM2.5 Moderate
Flu Activity Not available.
METAR KWHP 010247Z 13006KT 15SM SKC 26/16 A2983 RMK LAST

More Conditions Fewer Conditions

Pressure 29.83 in
Visibility 15.0 miles
Clouds Clear
Dew Point 56 °F
Humidity 73%
Rainfall 0.00 in
Snow Depth Not available.
UV 0 out of 12
Pollen 7.80 out of 12
Ozone Good
PM2.5 Moderate
Flu Activity Not available.
METAR KWHP 010247Z 13006KT 15SM SKC 26/16 A2983 RMK LAST

More Conditions Fewer Conditions

10-Day Weather Forecast

Almanac

Astronomy

Sep. 01, 2014 Rise Set
Actual Time 6:28 AM PDT 7:20 PM PDT
Civil Twilight 6:02 AM PDT 7:46 PM PDT
Nautical Twilight 5:32 AM PDT 8:16 PM PDT
Astronomical Twilight 5:01 AM PDT 8:47 PM PDT
Moon 1:01 PM PDT 11:44 PM PDT
Length of Visible Light 13h 43m
Length of Day
12h 52m
Tomorrow will be 2m 3s shorter.
Waxing Crescent, 41% of the Moon is Illuminated
Today
Waxing Crescent
Sep 2
First Quarter
Sep 8
Full
Sep 15
Last Quarter
Sep 24
New

Today's Extremes

State Highs State Lows

Community

WunderPhotos

Upload Photos

1,749,232 photos uploaded!

Nearby

Air Quality

  Air Quality AQ Index Pollutant
Yesterday Moderate
PM2.5
Yesterday Good
OZONE
Current Moderate
PM2.5
Current Good
OZONE
Monday Good
OZONE
Monday Good
PM2.5
Tuesday Good
OZONE
Tuesday Good
PM2.5

Snow Depth

Station Depth Elevation
Leavitt Lake 0 in 9400 ft
Sonora Pass 0 in 8800 ft
Leavitt Meadows 1 in 7200 ft
Summit Meadow 1 in 9122 ft
Ebbetts Pass 0 in 8700 ft

Earthquake Activity

City Distance Mag. Time & Date
Malibu, California 43 miles 2.5 8:11 AM PDT
2014-08-30
Minimum magnitude displayed is 2.5.

Coastal Water Temperatures

Place Temperature
Santa Monica Pier 71.1 °F
Los Angeles, CA 68.0 °F
La Jolla, CA 66.9 °F

Nearby Weather Stations